sensor_id;sensor_type;location;lat;lon;timestamp;temperature;humidity
71082;SHT31;58740;50.672;18.690;2024-01-30T00:00:19;3.01;69.59
71082;SHT31;58740;50.672;18.690;2024-01-30T00:03:12;2.97;69.54
71082;SHT31;58740;50.672;18.690;2024-01-30T00:05:46;2.94;69.63
71082;SHT31;58740;50.672;18.690;2024-01-30T00:08:19;2.91;69.73
71082;SHT31;58740;50.672;18.690;2024-01-30T00:10:53;2.89;69.81
71082;SHT31;58740;50.672;18.690;2024-01-30T00:13:26;2.87;69.90
71082;SHT31;58740;50.672;18.690;2024-01-30T00:15:59;2.87;70.07
71082;SHT31;58740;50.672;18.690;2024-01-30T00:18:33;2.84;70.02
71082;SHT31;58740;50.672;18.690;2024-01-30T00:21:08;2.83;70.02
71082;SHT31;58740;50.672;18.690;2024-01-30T00:23:41;2.82;70.05
71082;SHT31;58740;50.672;18.690;2024-01-30T00:26:15;2.81;70.18
71082;SHT31;58740;50.672;18.690;2024-01-30T00:28:48;2.81;70.16
71082;SHT31;58740;50.672;18.690;2024-01-30T00:31:21;2.81;70.19
71082;SHT31;58740;50.672;18.690;2024-01-30T00:33:55;2.81;70.16
71082;SHT31;58740;50.672;18.690;2024-01-30T00:36:28;2.82;70.26
71082;SHT31;58740;50.672;18.690;2024-01-30T00:39:03;2.82;70.19
71082;SHT31;58740;50.672;18.690;2024-01-30T00:41:38;2.83;70.20
71082;SHT31;58740;50.672;18.690;2024-01-30T00:44:11;2.84;70.20
71082;SHT31;58740;50.672;18.690;2024-01-30T00:46:44;2.84;70.33
71082;SHT31;58740;50.672;18.690;2024-01-30T00:49:17;2.84;70.31
71082;SHT31;58740;50.672;18.690;2024-01-30T00:51:51;2.86;70.37
71082;SHT31;58740;50.672;18.690;2024-01-30T00:54:24;2.86;70.28
71082;SHT31;58740;50.672;18.690;2024-01-30T00:56:57;2.87;70.28
71082;SHT31;58740;50.672;18.690;2024-01-30T00:59:31;2.88;70.29
71082;SHT31;58740;50.672;18.690;2024-01-30T01:02:05;2.89;70.30
71082;SHT31;58740;50.672;18.690;2024-01-30T01:04:38;2.89;70.42
71082;SHT31;58740;50.672;18.690;2024-01-30T01:07:11;2.91;70.26
71082;SHT31;58740;50.672;18.690;2024-01-30T01:09:44;2.91;70.37
71082;SHT31;58740;50.672;18.690;2024-01-30T01:12:18;2.92;70.45
71082;SHT31;58740;50.672;18.690;2024-01-30T01:14:51;2.93;70.33
71082;SHT31;58740;50.672;18.690;2024-01-30T01:17:24;2.94;70.53
71082;SHT31;58740;50.672;18.690;2024-01-30T01:19:57;2.94;70.49
71082;SHT31;58740;50.672;18.690;2024-01-30T01:22:31;2.94;70.36
71082;SHT31;58740;50.672;18.690;2024-01-30T01:25:04;2.94;70.39
71082;SHT31;58740;50.672;18.690;2024-01-30T01:27:39;2.94;70.54
71082;SHT31;58740;50.672;18.690;2024-01-30T01:30:20;2.93;70.39
71082;SHT31;58740;50.672;18.690;2024-01-30T01:32:54;2.92;70.42
71082;SHT31;58740;50.672;18.690;2024-01-30T01:35:30;2.91;70.52
71082;SHT31;58740;50.672;18.690;2024-01-30T01:38:04;2.92;70.60
71082;SHT31;58740;50.672;18.690;2024-01-30T01:40:37;2.91;70.58
71082;SHT31;58740;50.672;18.690;2024-01-30T01:43:10;2.90;70.50
71082;SHT31;58740;50.672;18.690;2024-01-30T01:45:43;2.90;70.52
71082;SHT31;58740;50.672;18.690;2024-01-30T01:48:17;2.90;70.59
71082;SHT31;58740;50.672;18.690;2024-01-30T01:50:50;2.89;70.57
71082;SHT31;58740;50.672;18.690;2024-01-30T01:53:25;2.89;70.75
71082;SHT31;58740;50.672;18.690;2024-01-30T01:55:58;2.89;70.67
71082;SHT31;58740;50.672;18.690;2024-01-30T01:58:32;2.88;70.78
71082;SHT31;58740;50.672;18.690;2024-01-30T02:01:06;2.89;70.79
71082;SHT31;58740;50.672;18.690;2024-01-30T02:03:41;2.88;70.71
71082;SHT31;58740;50.672;18.690;2024-01-30T02:06:15;2.89;70.87
71082;SHT31;58740;50.672;18.690;2024-01-30T02:08:49;2.90;71.02
71082;SHT31;58740;50.672;18.690;2024-01-30T02:11:22;2.88;71.02
71082;SHT31;58740;50.672;18.690;2024-01-30T02:13:55;2.89;70.81
71082;SHT31;58740;50.672;18.690;2024-01-30T02:16:31;2.88;70.81
71082;SHT31;58740;50.672;18.690;2024-01-30T02:19:05;2.88;71.06
71082;SHT31;58740;50.672;18.690;2024-01-30T02:21:39;2.87;71.15
71082;SHT31;58740;50.672;18.690;2024-01-30T02:24:13;2.88;71.01
71082;SHT31;58740;50.672;18.690;2024-01-30T02:26:46;2.86;71.00
71082;SHT31;58740;50.672;18.690;2024-01-30T02:29:19;2.87;70.94
71082;SHT31;58740;50.672;18.690;2024-01-30T02:31:52;2.88;70.87
71082;SHT31;58740;50.672;18.690;2024-01-30T02:34:26;2.88;70.99
71082;SHT31;58740;50.672;18.690;2024-01-30T02:36:59;2.87;70.97
71082;SHT31;58740;50.672;18.690;2024-01-30T02:39:32;2.88;71.09
71082;SHT31;58740;50.672;18.690;2024-01-30T02:42:06;2.87;71.30
71082;SHT31;58740;50.672;18.690;2024-01-30T02:44:39;2.86;71.09
71082;SHT31;58740;50.672;18.690;2024-01-30T02:47:12;2.87;71.04
71082;SHT31;58740;50.672;18.690;2024-01-30T02:49:46;2.87;71.03
71082;SHT31;58740;50.672;18.690;2024-01-30T02:52:23;2.86;71.15
71082;SHT31;58740;50.672;18.690;2024-01-30T02:54:57;2.85;71.07
71082;SHT31;58740;50.672;18.690;2024-01-30T02:57:31;2.85;71.21
71082;SHT31;58740;50.672;18.690;2024-01-30T03:00:05;2.85;71.35
71082;SHT31;58740;50.672;18.690;2024-01-30T03:02:40;2.84;71.27
71082;SHT31;58740;50.672;18.690;2024-01-30T03:05:13;2.83;71.41
71082;SHT31;58740;50.672;18.690;2024-01-30T03:07:46;2.83;71.52
71082;SHT31;58740;50.672;18.690;2024-01-30T03:10:20;2.82;71.43
71082;SHT31;58740;50.672;18.690;2024-01-30T03:12:54;2.81;71.45
71082;SHT31;58740;50.672;18.690;2024-01-30T03:15:27;2.81;71.45
71082;SHT31;58740;50.672;18.690;2024-01-30T03:18:01;2.80;71.46
71082;SHT31;58740;50.672;18.690;2024-01-30T03:20:35;2.79;71.55
71082;SHT31;58740;50.672;18.690;2024-01-30T03:23:08;2.78;71.57
71082;SHT31;58740;50.672;18.690;2024-01-30T03:25:41;2.77;71.59
71082;SHT31;58740;50.672;18.690;2024-01-30T03:28:15;2.77;71.59
71082;SHT31;58740;50.672;18.690;2024-01-30T03:30:48;2.76;71.62
71082;SHT31;58740;50.672;18.690;2024-01-30T03:33:21;2.75;71.63
71082;SHT31;58740;50.672;18.690;2024-01-30T03:35:56;2.75;71.71
71082;SHT31;58740;50.672;18.690;2024-01-30T03:38:32;2.74;71.67
71082;SHT31;58740;50.672;18.690;2024-01-30T03:41:08;2.74;71.55
71082;SHT31;58740;50.672;18.690;2024-01-30T03:43:41;2.73;71.41
71082;SHT31;58740;50.672;18.690;2024-01-30T03:46:14;2.72;71.55
71082;SHT31;58740;50.672;18.690;2024-01-30T03:48:48;2.71;71.51
71082;SHT31;58740;50.672;18.690;2024-01-30T03:51:21;2.70;71.45
71082;SHT31;58740;50.672;18.690;2024-01-30T03:53:54;2.68;71.47
71082;SHT31;58740;50.672;18.690;2024-01-30T03:56:28;2.68;71.48
71082;SHT31;58740;50.672;18.690;2024-01-30T03:59:01;2.67;71.46
71082;SHT31;58740;50.672;18.690;2024-01-30T04:01:34;2.65;71.37
71082;SHT31;58740;50.672;18.690;2024-01-30T04:04:07;2.65;71.49
71082;SHT31;58740;50.672;18.690;2024-01-30T04:06:40;2.65;71.76
71082;SHT31;58740;50.672;18.690;2024-01-30T04:09:14;2.64;71.70
71082;SHT31;58740;50.672;18.690;2024-01-30T04:11:47;2.65;71.81
71082;SHT31;58740;50.672;18.690;2024-01-30T04:14:21;2.64;71.77
71082;SHT31;58740;50.672;18.690;2024-01-30T04:16:54;2.64;71.75
71082;SHT31;58740;50.672;18.690;2024-01-30T04:19:27;2.65;71.60
71082;SHT31;58740;50.672;18.690;2024-01-30T04:22:00;2.64;71.33
71082;SHT31;58740;50.672;18.690;2024-01-30T04:24:34;2.64;71.30
71082;SHT31;58740;50.672;18.690;2024-01-30T04:27:07;2.64;71.60
71082;SHT31;58740;50.672;18.690;2024-01-30T04:29:40;2.63;71.49
71082;SHT31;58740;50.672;18.690;2024-01-30T04:32:14;2.63;71.36
71082;SHT31;58740;50.672;18.690;2024-01-30T04:34:47;2.63;71.35
71082;SHT31;58740;50.672;18.690;2024-01-30T04:37:20;2.63;71.38
71082;SHT31;58740;50.672;18.690;2024-01-30T04:39:54;2.64;71.44
71082;SHT31;58740;50.672;18.690;2024-01-30T04:42:28;2.64;71.46
71082;SHT31;58740;50.672;18.690;2024-01-30T04:45:01;2.64;71.64
71082;SHT31;58740;50.672;18.690;2024-01-30T04:47:36;2.63;71.46
71082;SHT31;58740;50.672;18.690;2024-01-30T04:50:09;2.66;71.21
71082;SHT31;58740;50.672;18.690;2024-01-30T04:52:43;2.66;71.40
71082;SHT31;58740;50.672;18.690;2024-01-30T04:55:16;2.66;71.17
71082;SHT31;58740;50.672;18.690;2024-01-30T04:57:51;2.66;71.15
71082;SHT31;58740;50.672;18.690;2024-01-30T05:00:24;2.65;71.32
71082;SHT31;58740;50.672;18.690;2024-01-30T05:02:58;2.66;71.55
71082;SHT31;58740;50.672;18.690;2024-01-30T05:05:31;2.65;71.46
71082;SHT31;58740;50.672;18.690;2024-01-30T05:08:05;2.64;71.12
71082;SHT31;58740;50.672;18.690;2024-01-30T05:10:38;2.63;71.21
71082;SHT31;58740;50.672;18.690;2024-01-30T05:13:12;2.64;71.36
71082;SHT31;58740;50.672;18.690;2024-01-30T05:15:45;2.64;71.16
71082;SHT31;58740;50.672;18.690;2024-01-30T05:18:18;2.62;71.10
71082;SHT31;58740;50.672;18.690;2024-01-30T05:20:51;2.62;70.87
71082;SHT31;58740;50.672;18.690;2024-01-30T05:23:25;2.61;70.95
71082;SHT31;58740;50.672;18.690;2024-01-30T05:25:58;2.60;71.32
71082;SHT31;58740;50.672;18.690;2024-01-30T05:28:31;2.60;71.29
71082;SHT31;58740;50.672;18.690;2024-01-30T05:31:05;2.58;71.44
71082;SHT31;58740;50.672;18.690;2024-01-30T05:33:38;2.57;71.25
71082;SHT31;58740;50.672;18.690;2024-01-30T05:36:12;2.55;71.18
71082;SHT31;58740;50.672;18.690;2024-01-30T05:38:46;2.54;71.17
71082;SHT31;58740;50.672;18.690;2024-01-30T05:41:19;2.54;71.20
71082;SHT31;58740;50.672;18.690;2024-01-30T05:43:55;2.54;71.07
71082;SHT31;58740;50.672;18.690;2024-01-30T05:46:29;2.53;71.35
71082;SHT31;58740;50.672;18.690;2024-01-30T05:49:03;2.53;71.39
71082;SHT31;58740;50.672;18.690;2024-01-30T05:51:36;2.52;71.32
71082;SHT31;58740;50.672;18.690;2024-01-30T05:54:10;2.52;71.44
71082;SHT31;58740;50.672;18.690;2024-01-30T05:56:46;2.52;71.36
71082;SHT31;58740;50.672;18.690;2024-01-30T05:59:19;2.52;71.48
71082;SHT31;58740;50.672;18.690;2024-01-30T06:01:52;2.52;71.60
71082;SHT31;58740;50.672;18.690;2024-01-30T06:04:25;2.52;71.36
71082;SHT31;58740;50.672;18.690;2024-01-30T06:06:59;2.51;71.48
71082;SHT31;58740;50.672;18.690;2024-01-30T06:09:34;2.52;71.65
71082;SHT31;58740;50.672;18.690;2024-01-30T06:12:08;2.51;71.40
71082;SHT31;58740;50.672;18.690;2024-01-30T06:14:41;2.52;71.26
71082;SHT31;58740;50.672;18.690;2024-01-30T06:17:15;2.52;71.62
71082;SHT31;58740;50.672;18.690;2024-01-30T06:19:49;2.52;71.67
71082;SHT31;58740;50.672;18.690;2024-01-30T06:22:22;2.50;71.67
71082;SHT31;58740;50.672;18.690;2024-01-30T06:24:55;2.51;71.66
71082;SHT31;58740;50.672;18.690;2024-01-30T06:27:29;2.51;71.74
71082;SHT31;58740;50.672;18.690;2024-01-30T06:30:03;2.51;71.95
71082;SHT31;58740;50.672;18.690;2024-01-30T06:32:38;2.50;71.80
71082;SHT31;58740;50.672;18.690;2024-01-30T06:35:11;2.50;71.88
71082;SHT31;58740;50.672;18.690;2024-01-30T06:37:46;2.48;71.98
71082;SHT31;58740;50.672;18.690;2024-01-30T06:40:19;2.47;71.99
71082;SHT31;58740;50.672;18.690;2024-01-30T06:42:53;2.46;71.91
71082;SHT31;58740;50.672;18.690;2024-01-30T06:45:26;2.46;71.88
71082;SHT31;58740;50.672;18.690;2024-01-30T06:47:59;2.47;72.06
71082;SHT31;58740;50.672;18.690;2024-01-30T06:50:33;2.47;72.08
71082;SHT31;58740;50.672;18.690;2024-01-30T06:53:06;2.46;72.18
71082;SHT31;58740;50.672;18.690;2024-01-30T06:55:39;2.46;72.20
71082;SHT31;58740;50.672;18.690;2024-01-30T06:58:13;2.48;72.32
71082;SHT31;58740;50.672;18.690;2024-01-30T07:00:46;2.50;72.45
71082;SHT31;58740;50.672;18.690;2024-01-30T07:03:19;2.50;72.46
71082;SHT31;58740;50.672;18.690;2024-01-30T07:05:53;2.51;72.43
71082;SHT31;58740;50.672;18.690;2024-01-30T07:08:27;2.51;72.40
71082;SHT31;58740;50.672;18.690;2024-01-30T07:11:00;2.54;72.34
71082;SHT31;58740;50.672;18.690;2024-01-30T07:13:34;2.55;72.33
71082;SHT31;58740;50.672;18.690;2024-01-30T07:16:07;2.58;72.41
71082;SHT31;58740;50.672;18.690;2024-01-30T07:18:40;2.60;72.32
71082;SHT31;58740;50.672;18.690;2024-01-30T07:21:14;2.60;72.33
71082;SHT31;58740;50.672;18.690;2024-01-30T07:23:50;2.62;72.39
71082;SHT31;58740;50.672;18.690;2024-01-30T07:26:23;2.64;72.42
71082;SHT31;58740;50.672;18.690;2024-01-30T07:29:00;2.67;72.31
71082;SHT31;58740;50.672;18.690;2024-01-30T07:31:33;2.70;72.26
71082;SHT31;58740;50.672;18.690;2024-01-30T07:34:06;2.73;71.99
71082;SHT31;58740;50.672;18.690;2024-01-30T07:36:40;2.76;72.00
71082;SHT31;58740;50.672;18.690;2024-01-30T07:39:13;2.81;71.92
71082;SHT31;58740;50.672;18.690;2024-01-30T07:41:47;2.85;71.94
71082;SHT31;58740;50.672;18.690;2024-01-30T07:44:20;2.90;71.77
71082;SHT31;58740;50.672;18.690;2024-01-30T07:46:53;2.95;71.74
71082;SHT31;58740;50.672;18.690;2024-01-30T07:49:27;3.01;71.79
71082;SHT31;58740;50.672;18.690;2024-01-30T07:52:03;3.05;71.62
71082;SHT31;58740;50.672;18.690;2024-01-30T07:54:37;3.10;71.38
71082;SHT31;58740;50.672;18.690;2024-01-30T07:57:48;3.16;71.40
71082;SHT31;58740;50.672;18.690;2024-01-30T08:00:22;3.20;71.30
71082;SHT31;58740;50.672;18.690;2024-01-30T08:02:55;3.25;71.17
71082;SHT31;58740;50.672;18.690;2024-01-30T08:05:28;3.30;70.97
71082;SHT31;58740;50.672;18.690;2024-01-30T08:08:02;3.34;70.83
71082;SHT31;58740;50.672;18.690;2024-01-30T08:10:36;3.39;70.72
71082;SHT31;58740;50.672;18.690;2024-01-30T08:13:10;3.44;70.60
71082;SHT31;58740;50.672;18.690;2024-01-30T08:15:43;3.49;70.56
71082;SHT31;58740;50.672;18.690;2024-01-30T08:18:16;3.53;70.22
71082;SHT31;58740;50.672;18.690;2024-01-30T08:20:49;3.58;69.89
71082;SHT31;58740;50.672;18.690;2024-01-30T08:23:23;3.63;69.90
71082;SHT31;58740;50.672;18.690;2024-01-30T08:25:56;3.67;69.56
71082;SHT31;58740;50.672;18.690;2024-01-30T08:28:29;3.71;69.40
71082;SHT31;58740;50.672;18.690;2024-01-30T08:31:03;3.77;69.34
71082;SHT31;58740;50.672;18.690;2024-01-30T08:33:36;3.80;69.42
71082;SHT31;58740;50.672;18.690;2024-01-30T08:36:12;3.85;68.80
71082;SHT31;58740;50.672;18.690;2024-01-30T08:38:45;3.89;68.82
71082;SHT31;58740;50.672;18.690;2024-01-30T08:41:20;3.93;68.59
71082;SHT31;58740;50.672;18.690;2024-01-30T08:43:53;3.96;68.65
71082;SHT31;58740;50.672;18.690;2024-01-30T08:46:26;4.00;68.49
71082;SHT31;58740;50.672;18.690;2024-01-30T08:49:00;4.04;68.06
71082;SHT31;58740;50.672;18.690;2024-01-30T08:51:34;4.07;67.97
71082;SHT31;58740;50.672;18.690;2024-01-30T08:54:07;4.11;67.98
71082;SHT31;58740;50.672;18.690;2024-01-30T08:56:40;4.15;67.81
71082;SHT31;58740;50.672;18.690;2024-01-30T08:59:14;4.20;67.57
71082;SHT31;58740;50.672;18.690;2024-01-30T09:01:47;4.24;67.49
71082;SHT31;58740;50.672;18.690;2024-01-30T09:04:39;4.27;67.28
71082;SHT31;58740;50.672;18.690;2024-01-30T09:07:12;4.31;67.06
71082;SHT31;58740;50.672;18.690;2024-01-30T09:09:46;4.35;67.23
71082;SHT31;58740;50.672;18.690;2024-01-30T09:12:19;4.38;67.05
71082;SHT31;58740;50.672;18.690;2024-01-30T09:14:52;4.42;67.16
71082;SHT31;58740;50.672;18.690;2024-01-30T09:17:25;4.46;67.31
71082;SHT31;58740;50.672;18.690;2024-01-30T09:19:59;4.50;67.10
71082;SHT31;58740;50.672;18.690;2024-01-30T09:22:32;4.53;67.08
71082;SHT31;58740;50.672;18.690;2024-01-30T09:25:06;4.58;66.77
71082;SHT31;58740;50.672;18.690;2024-01-30T09:27:40;4.61;66.99
71082;SHT31;58740;50.672;18.690;2024-01-30T09:30:13;4.63;66.55
71082;SHT31;58740;50.672;18.690;2024-01-30T09:32:47;4.65;66.34
71082;SHT31;58740;50.672;18.690;2024-01-30T09:35:20;4.68;66.08
71082;SHT31;58740;50.672;18.690;2024-01-30T09:37:54;4.70;66.03
71082;SHT31;58740;50.672;18.690;2024-01-30T09:40:27;4.74;65.83
71082;SHT31;58740;50.672;18.690;2024-01-30T09:43:01;4.75;66.09
71082;SHT31;58740;50.672;18.690;2024-01-30T09:45:34;4.77;66.40
71082;SHT31;58740;50.672;18.690;2024-01-30T09:48:09;4.80;66.15
71082;SHT31;58740;50.672;18.690;2024-01-30T09:50:42;4.83;66.01
71082;SHT31;58740;50.672;18.690;2024-01-30T09:53:16;4.86;66.33
71082;SHT31;58740;50.672;18.690;2024-01-30T09:55:51;4.90;65.97
71082;SHT31;58740;50.672;18.690;2024-01-30T09:58:25;4.93;65.98
71082;SHT31;58740;50.672;18.690;2024-01-30T10:00:59;4.95;65.79
71082;SHT31;58740;50.672;18.690;2024-01-30T10:03:32;4.96;65.52
71082;SHT31;58740;50.672;18.690;2024-01-30T10:06:06;4.97;65.85
71082;SHT31;58740;50.672;18.690;2024-01-30T10:08:41;4.98;65.64
71082;SHT31;58740;50.672;18.690;2024-01-30T10:11:15;5.01;65.08
71082;SHT31;58740;50.672;18.690;2024-01-30T10:13:48;5.03;65.31
71082;SHT31;58740;50.672;18.690;2024-01-30T10:16:21;5.05;65.21
71082;SHT31;58740;50.672;18.690;2024-01-30T10:18:55;5.09;64.88
71082;SHT31;58740;50.672;18.690;2024-01-30T10:21:29;5.12;64.87
71082;SHT31;58740;50.672;18.690;2024-01-30T10:24:02;5.16;64.81
71082;SHT31;58740;50.672;18.690;2024-01-30T10:26:38;5.18;64.57
71082;SHT31;58740;50.672;18.690;2024-01-30T10:29:13;5.22;64.37
71082;SHT31;58740;50.672;18.690;2024-01-30T10:31:56;5.24;64.60
71082;SHT31;58740;50.672;18.690;2024-01-30T10:34:31;5.27;64.52
71082;SHT31;58740;50.672;18.690;2024-01-30T10:37:08;5.30;64.45
71082;SHT31;58740;50.672;18.690;2024-01-30T10:39:45;5.33;64.52
71082;SHT31;58740;50.672;18.690;2024-01-30T10:42:19;5.36;64.38
71082;SHT31;58740;50.672;18.690;2024-01-30T10:45:02;5.40;64.11
71082;SHT31;58740;50.672;18.690;2024-01-30T10:47:43;5.45;64.10
71082;SHT31;58740;50.672;18.690;2024-01-30T10:50:20;5.48;63.91
71082;SHT31;58740;50.672;18.690;2024-01-30T10:52:56;5.52;63.48
71082;SHT31;58740;50.672;18.690;2024-01-30T10:55:32;5.55;63.18
71082;SHT31;58740;50.672;18.690;2024-01-30T10:58:09;5.59;63.40
71082;SHT31;58740;50.672;18.690;2024-01-30T11:00:43;5.60;63.43
71082;SHT31;58740;50.672;18.690;2024-01-30T11:03:20;5.63;62.93
71082;SHT31;58740;50.672;18.690;2024-01-30T11:05:58;5.64;62.85
71082;SHT31;58740;50.672;18.690;2024-01-30T11:08:33;5.67;62.74
71082;SHT31;58740;50.672;18.690;2024-01-30T11:11:08;5.70;62.10
71082;SHT31;58740;50.672;18.690;2024-01-30T11:13:46;5.73;61.96
71082;SHT31;58740;50.672;18.690;2024-01-30T11:16:30;5.77;61.88
71082;SHT31;58740;50.672;18.690;2024-01-30T11:19:04;5.79;61.44
71082;SHT31;58740;50.672;18.690;2024-01-30T11:21:43;5.82;61.47
71082;SHT31;58740;50.672;18.690;2024-01-30T11:24:22;5.86;61.98
71082;SHT31;58740;50.672;18.690;2024-01-30T11:26:56;5.89;61.99
71082;SHT31;58740;50.672;18.690;2024-01-30T11:29:30;5.92;61.76
71082;SHT31;58740;50.672;18.690;2024-01-30T11:32:07;5.94;60.74
71082;SHT31;58740;50.672;18.690;2024-01-30T11:34:42;5.98;61.29
71082;SHT31;58740;50.672;18.690;2024-01-30T11:37:15;6.01;61.27
71082;SHT31;58740;50.672;18.690;2024-01-30T11:39:52;6.03;61.47
71082;SHT31;58740;50.672;18.690;2024-01-30T11:42:26;6.07;61.27
71082;SHT31;58740;50.672;18.690;2024-01-30T11:45:00;6.10;60.83
71082;SHT31;58740;50.672;18.690;2024-01-30T11:47:36;6.13;60.15
71082;SHT31;58740;50.672;18.690;2024-01-30T11:50:12;6.16;60.53
71082;SHT31;58740;50.672;18.690;2024-01-30T11:52:47;6.18;60.12
71082;SHT31;58740;50.672;18.690;2024-01-30T11:55:20;6.22;60.08
71082;SHT31;58740;50.672;18.690;2024-01-30T11:57:57;6.25;60.40
71082;SHT31;58740;50.672;18.690;2024-01-30T12:00:31;6.27;60.09
71082;SHT31;58740;50.672;18.690;2024-01-30T12:03:05;6.28;59.30
71082;SHT31;58740;50.672;18.690;2024-01-30T12:05:41;6.32;59.55
71082;SHT31;58740;50.672;18.690;2024-01-30T12:08:15;6.31;59.68
71082;SHT31;58740;50.672;18.690;2024-01-30T12:10:56;6.34;59.10
71082;SHT31;58740;50.672;18.690;2024-01-30T12:13:31;6.34;59.39
71082;SHT31;58740;50.672;18.690;2024-01-30T12:16:05;6.34;59.45
71082;SHT31;58740;50.672;18.690;2024-01-30T12:18:39;6.33;59.44
71082;SHT31;58740;50.672;18.690;2024-01-30T12:21:15;6.33;59.35
71082;SHT31;58740;50.672;18.690;2024-01-30T12:23:49;6.34;59.56
71082;SHT31;58740;50.672;18.690;2024-01-30T12:26:23;6.34;59.67
71082;SHT31;58740;50.672;18.690;2024-01-30T12:28:56;6.35;59.28
71082;SHT31;58740;50.672;18.690;2024-01-30T12:31:31;6.39;59.07
71082;SHT31;58740;50.672;18.690;2024-01-30T12:34:05;6.40;58.91
71082;SHT31;58740;50.672;18.690;2024-01-30T12:36:38;6.44;58.68
71082;SHT31;58740;50.672;18.690;2024-01-30T12:39:12;6.47;58.09
71082;SHT31;58740;50.672;18.690;2024-01-30T12:41:45;6.50;57.79
71082;SHT31;58740;50.672;18.690;2024-01-30T12:44:19;6.52;58.14
71082;SHT31;58740;50.672;18.690;2024-01-30T12:46:53;6.53;58.49
71082;SHT31;58740;50.672;18.690;2024-01-30T12:49:27;6.53;58.46
71082;SHT31;58740;50.672;18.690;2024-01-30T12:52:01;6.55;58.06
71082;SHT31;58740;50.672;18.690;2024-01-30T12:54:35;6.56;58.20
71082;SHT31;58740;50.672;18.690;2024-01-30T12:57:09;6.58;58.19
71082;SHT31;58740;50.672;18.690;2024-01-30T12:59:42;6.59;58.27
71082;SHT31;58740;50.672;18.690;2024-01-30T13:02:17;6.59;58.23
71082;SHT31;58740;50.672;18.690;2024-01-30T13:04:51;6.59;58.25
71082;SHT31;58740;50.672;18.690;2024-01-30T13:07:25;6.60;57.81
71082;SHT31;58740;50.672;18.690;2024-01-30T13:09:58;6.61;57.93
71082;SHT31;58740;50.672;18.690;2024-01-30T13:12:33;6.60;58.07
71082;SHT31;58740;50.672;18.690;2024-01-30T13:15:07;6.60;57.18
71082;SHT31;58740;50.672;18.690;2024-01-30T13:17:41;6.61;57.22
71082;SHT31;58740;50.672;18.690;2024-01-30T13:20:16;6.62;56.97
71082;SHT31;58740;50.672;18.690;2024-01-30T13:22:50;6.63;56.66
71082;SHT31;58740;50.672;18.690;2024-01-30T13:25:23;6.64;56.87
71082;SHT31;58740;50.672;18.690;2024-01-30T13:27:57;6.64;56.95
71082;SHT31;58740;50.672;18.690;2024-01-30T13:30:30;6.65;56.70
71082;SHT31;58740;50.672;18.690;2024-01-30T13:33:04;6.64;56.98
71082;SHT31;58740;50.672;18.690;2024-01-30T13:35:37;6.65;56.80
71082;SHT31;58740;50.672;18.690;2024-01-30T13:38:11;6.66;56.95
71082;SHT31;58740;50.672;18.690;2024-01-30T13:40:45;6.66;56.78
71082;SHT31;58740;50.672;18.690;2024-01-30T13:43:18;6.68;56.83
71082;SHT31;58740;50.672;18.690;2024-01-30T13:45:51;6.69;57.17
71082;SHT31;58740;50.672;18.690;2024-01-30T13:48:25;6.69;57.34
71082;SHT31;58740;50.672;18.690;2024-01-30T13:50:59;6.70;57.47
71082;SHT31;58740;50.672;18.690;2024-01-30T13:53:33;6.71;56.85
71082;SHT31;58740;50.672;18.690;2024-01-30T13:56:06;6.71;57.54
71082;SHT31;58740;50.672;18.690;2024-01-30T13:58:40;6.68;57.84
71082;SHT31;58740;50.672;18.690;2024-01-30T14:01:13;6.65;57.85
71082;SHT31;58740;50.672;18.690;2024-01-30T14:03:47;6.64;57.81
71082;SHT31;58740;50.672;18.690;2024-01-30T14:06:20;6.61;57.97
71082;SHT31;58740;50.672;18.690;2024-01-30T14:08:54;6.59;57.85
71082;SHT31;58740;50.672;18.690;2024-01-30T14:11:36;6.56;57.63
71082;SHT31;58740;50.672;18.690;2024-01-30T14:14:10;6.56;57.91
71082;SHT31;58740;50.672;18.690;2024-01-30T14:16:46;6.55;57.97
71082;SHT31;58740;50.672;18.690;2024-01-30T14:19:19;6.54;57.83
71082;SHT31;58740;50.672;18.690;2024-01-30T14:21:53;6.52;57.95
71082;SHT31;58740;50.672;18.690;2024-01-30T14:24:26;6.50;58.01
71082;SHT31;58740;50.672;18.690;2024-01-30T14:27:00;6.48;57.77
71082;SHT31;58740;50.672;18.690;2024-01-30T14:29:34;6.45;58.14
71082;SHT31;58740;50.672;18.690;2024-01-30T14:32:07;6.42;58.48
71082;SHT31;58740;50.672;18.690;2024-01-30T14:34:41;6.39;58.48
71082;SHT31;58740;50.672;18.690;2024-01-30T14:37:14;6.36;58.36
71082;SHT31;58740;50.672;18.690;2024-01-30T14:39:48;6.34;58.36
71082;SHT31;58740;50.672;18.690;2024-01-30T14:42:21;6.34;58.63
71082;SHT31;58740;50.672;18.690;2024-01-30T14:44:55;6.32;58.40
71082;SHT31;58740;50.672;18.690;2024-01-30T14:47:28;6.30;58.30
71082;SHT31;58740;50.672;18.690;2024-01-30T14:50:01;6.28;58.79
71082;SHT31;58740;50.672;18.690;2024-01-30T14:52:37;6.25;58.79
71082;SHT31;58740;50.672;18.690;2024-01-30T14:55:11;6.22;58.79
71082;SHT31;58740;50.672;18.690;2024-01-30T14:57:44;6.18;59.05
71082;SHT31;58740;50.672;18.690;2024-01-30T15:00:18;6.14;59.16
71082;SHT31;58740;50.672;18.690;2024-01-30T15:02:52;6.11;59.22
71082;SHT31;58740;50.672;18.690;2024-01-30T15:05:25;6.08;59.32
71082;SHT31;58740;50.672;18.690;2024-01-30T15:07:59;6.05;59.43
71082;SHT31;58740;50.672;18.690;2024-01-30T15:10:32;6.03;59.53
71082;SHT31;58740;50.672;18.690;2024-01-30T15:13:05;5.99;59.92
71082;SHT31;58740;50.672;18.690;2024-01-30T15:15:40;5.94;59.89
71082;SHT31;58740;50.672;18.690;2024-01-30T15:18:13;5.92;59.98
71082;SHT31;58740;50.672;18.690;2024-01-30T15:20:46;5.89;60.13
71082;SHT31;58740;50.672;18.690;2024-01-30T15:23:20;5.85;60.09
71082;SHT31;58740;50.672;18.690;2024-01-30T15:25:53;5.82;60.32
71082;SHT31;58740;50.672;18.690;2024-01-30T15:28:34;5.79;60.48
71082;SHT31;58740;50.672;18.690;2024-01-30T15:31:09;5.75;60.53
71082;SHT31;58740;50.672;18.690;2024-01-30T15:33:42;5.72;60.75
71082;SHT31;58740;50.672;18.690;2024-01-30T15:36:16;5.69;60.89
71082;SHT31;58740;50.672;18.690;2024-01-30T15:38:49;5.66;60.99
71082;SHT31;58740;50.672;18.690;2024-01-30T15:41:23;5.62;61.22
71082;SHT31;58740;50.672;18.690;2024-01-30T15:43:57;5.59;61.26
71082;SHT31;58740;50.672;18.690;2024-01-30T15:46:31;5.57;61.21
71082;SHT31;58740;50.672;18.690;2024-01-30T15:49:05;5.55;61.44
71082;SHT31;58740;50.672;18.690;2024-01-30T15:51:38;5.52;61.58
71082;SHT31;58740;50.672;18.690;2024-01-30T15:54:11;5.49;61.66
71082;SHT31;58740;50.672;18.690;2024-01-30T15:56:45;5.45;61.84
71082;SHT31;58740;50.672;18.690;2024-01-30T15:59:18;5.43;61.94
71082;SHT31;58740;50.672;18.690;2024-01-30T16:01:52;5.41;62.00
71082;SHT31;58740;50.672;18.690;2024-01-30T16:04:25;5.39;61.92
71082;SHT31;58740;50.672;18.690;2024-01-30T16:06:58;5.37;62.11
71082;SHT31;58740;50.672;18.690;2024-01-30T16:09:32;5.34;62.14
71082;SHT31;58740;50.672;18.690;2024-01-30T16:12:06;5.32;62.35